Time;durP1;ratioP1;P1;durP2;ratioP2;P2;SDS_P1;SDS_P2;PMS_P1;PMS_P2;Temp;Humidity;BMP_temperature;BMP_pressure;BME280_temperature;BME280_humidity;BME280_pressure;Samples;Min_cycle;Max_cycle;Signal;HPM_P1;HPM_P2
2020/12/20 00:01:54;;;;;;;5.15;3.95;;;19.10;51.90;;;;;;5065645;28;20132;-62
2020/12/20 00:04:19;;;;;;;4.35;3.38;;;19.00;51.80;;;;;;5047983;28;20040;-61
2020/12/20 00:06:45;;;;;;;3.13;2.83;;;19.00;51.80;;;;;;5065968;28;20035;-62
2020/12/20 00:09:13;;;;;;;3.60;3.28;;;19.10;51.80;;;;;;5065546;28;20499;-60
2020/12/20 00:11:40;;;;;;;5.40;4.13;;;19.10;51.90;;;;;;5065119;28;20174;-62
2020/12/20 00:16:50;;;;;;;4.20;3.35;;;19.00;52.50;;;;;;5065334;28;20059;-60
2020/12/20 00:19:15;;;;;;;4.63;3.50;;;19.00;51.90;;;;;;5066018;28;20055;-60
2020/12/20 00:21:41;;;;;;;3.55;3.25;;;19.00;51.80;;;;;;5065036;28;20457;-62
2020/12/20 00:24:09;;;;;;;5.07;3.70;;;19.00;51.80;;;;;;5065178;28;20120;-62
2020/12/20 00:26:34;;;;;;;3.72;3.13;;;19.00;51.90;;;;;;5065000;28;20040;-63
2020/12/20 00:29:00;;;;;;;4.32;3.38;;;19.00;51.90;;;;;;5065845;28;20021;-61
2020/12/20 00:31:25;;;;;;;3.67;3.38;;;18.90;51.80;;;;;;5065316;28;20037;-63
2020/12/20 00:33:51;;;;;;;3.88;3.55;;;19.00;51.90;;;;;;5057375;28;20488;-61
2020/12/20 00:36:16;;;;;;;4.47;3.33;;;18.90;51.80;;;;;;5065864;28;20036;-62
2020/12/20 00:38:42;;;;;;;3.85;3.25;;;18.90;51.80;;;;;;5065392;28;20028;-62
2020/12/20 00:41:10;;;;;;;3.22;2.92;;;18.90;51.80;;;;;;5064974;28;20542;-62
2020/12/20 00:43:36;;;;;;;4.15;3.67;;;18.90;51.90;;;;;;5065581;28;20044;-63
2020/12/20 00:46:01;;;;;;;3.40;3.00;;;18.90;51.80;;;;;;5047228;28;20048;-62
2020/12/20 00:48:27;;;;;;;3.83;2.95;;;18.90;51.90;;;;;;5065012;28;20525;-62
2020/12/20 00:50:52;;;;;;;3.72;3.42;;;18.90;51.90;;;;;;5046656;28;20060;-62
2020/12/20 00:53:18;;;;;;;3.63;3.00;;;18.90;51.90;;;;;;5065371;28;20067;-61
2020/12/20 00:55:43;;;;;;;3.85;2.70;;;18.90;51.80;;;;;;5064754;28;20032;-62
2020/12/20 00:58:09;;;;;;;4.72;3.40;;;18.80;51.80;;;;;;5065269;28;20032;-62
2020/12/20 01:00:34;;;;;;;2.90;2.55;;;18.90;51.90;;;;;;5047203;28;20527;-62
2020/12/20 01:03:00;;;;;;;5.13;2.85;;;18.90;51.90;;;;;;5065032;28;20316;-62
2020/12/20 01:05:25;;;;;;;4.03;3.00;;;18.90;51.90;;;;;;5064122;28;20044;-62
2020/12/20 01:07:51;;;;;;;3.25;2.85;;;18.90;51.90;;;;;;5064671;28;20572;-61
2020/12/20 01:10:16;;;;;;;3.97;2.65;;;18.90;51.90;;;;;;5064015;28;20036;-61
2020/12/20 01:12:42;;;;;;;3.90;3.30;;;18.90;51.90;;;;;;5064791;28;21577;-61
2020/12/20 01:15:07;;;;;;;2.95;2.72;;;18.90;51.90;;;;;;5064679;28;20111;-61
2020/12/20 01:17:33;;;;;;;3.13;2.72;;;18.90;51.90;;;;;;5064020;28;20036;-62
2020/12/20 01:19:58;;;;;;;3.13;2.75;;;18.90;51.90;;;;;;5063309;28;20032;-62
2020/12/20 01:22:24;;;;;;;5.03;3.47;;;18.90;51.90;;;;;;5064342;28;20040;-61
2020/12/20 01:24:49;;;;;;;3.00;2.70;;;18.90;51.90;;;;;;5065013;28;20037;-62
2020/12/20 01:27:14;;;;;;;3.20;2.90;;;18.90;51.90;;;;;;5046634;28;20033;-62
2020/12/20 01:29:40;;;;;;;3.40;2.83;;;18.90;51.90;;;;;;5064290;28;20044;-61
2020/12/20 01:32:05;;;;;;;3.85;2.80;;;18.90;51.90;;;;;;5063752;28;20040;-59
2020/12/20 01:34:31;;;;;;;2.92;2.40;;;18.90;51.90;;;;;;5063696;28;20586;-62
2020/12/20 01:36:56;;;;;;;3.15;2.90;;;19.00;52.00;;;;;;5063708;28;20048;-60
2020/12/20 01:39:22;;;;;;;5.25;2.60;;;18.90;51.90;;;;;;5065289;28;20048;-62
2020/12/20 01:41:50;;;;;;;2.67;2.47;;;19.00;52.00;;;;;;5063653;28;20032;-61
2020/12/20 01:44:16;;;;;;;3.15;2.20;;;19.00;51.90;;;;;;5046893;28;20434;-61
2020/12/20 01:46:42;;;;;;;2.53;2.30;;;19.00;52.00;;;;;;5045697;28;20029;-61
2020/12/20 01:49:07;;;;;;;2.78;2.55;;;19.00;51.90;;;;;;5063635;28;20042;-61
2020/12/20 01:51:33;;;;;;;3.55;2.15;;;19.00;51.90;;;;;;5045409;28;20025;-61
2020/12/20 01:53:58;;;;;;;3.38;2.60;;;19.00;51.90;;;;;;5046599;28;20033;-62
2020/12/20 01:56:24;;;;;;;2.97;2.42;;;19.00;51.80;;;;;;5064571;28;20040;-61
2020/12/20 01:58:50;;;;;;;3.50;2.50;;;19.00;51.90;;;;;;5064101;28;20112;-61
2020/12/20 02:01:15;;;;;;;3.45;2.35;;;19.10;51.90;;;;;;5062410;28;20032;-60
2020/12/20 02:03:41;;;;;;;2.40;2.20;;;19.10;51.90;;;;;;5063670;28;20039;-61
2020/12/20 02:06:11;;;;;;;2.95;2.63;;;19.10;51.90;;;;;;5045556;28;20040;-60
2020/12/20 02:08:36;;;;;;;2.85;2.42;;;19.00;51.80;;;;;;5029565;28;20086;-62
2020/12/20 02:11:07;;;;;;;3.15;2.83;;;19.00;51.80;;;;;;5063565;28;20059;-62
2020/12/20 02:13:32;;;;;;;2.47;2.28;;;19.00;51.80;;;;;;5045715;28;20399;-62
2020/12/20 02:15:58;;;;;;;3.22;2.92;;;19.00;51.80;;;;;;5063813;28;20025;-61
2020/12/20 02:18:23;;;;;;;2.60;2.30;;;19.00;51.80;;;;;;5064249;28;20037;-61
2020/12/20 02:20:49;;;;;;;2.60;2.17;;;19.00;51.80;;;;;;5061732;28;20055;-59
2020/12/20 02:23:14;;;;;;;2.47;2.25;;;19.00;51.80;;;;;;5063605;28;20032;-60
2020/12/20 02:25:40;;;;;;;2.40;2.20;;;19.00;51.70;;;;;;5063273;28;20086;-60
2020/12/20 02:28:06;;;;;;;2.35;1.98;;;19.00;51.70;;;;;;5063609;28;20116;-62
2020/12/20 02:30:31;;;;;;;3.28;2.90;;;19.00;51.70;;;;;;5063395;28;20063;-62
2020/12/20 02:32:57;;;;;;;2.50;2.30;;;19.00;51.70;;;;;;5064235;28;20418;-61
2020/12/20 02:35:29;;;;;;;2.58;2.38;;;19.00;51.70;;;;;;5064047;28;20044;-63
2020/12/20 02:37:54;;;;;;;4.35;2.30;;;19.00;51.70;;;;;;5063086;28;20527;-60
2020/12/20 02:40:20;;;;;;;2.80;2.00;;;18.90;51.60;;;;;;5063397;28;20403;-60
2020/12/20 02:42:45;;;;;;;3.08;2.50;;;18.90;51.60;;;;;;5064045;28;20044;-63
2020/12/20 02:45:11;;;;;;;3.17;2.40;;;18.90;51.60;;;;;;5064081;28;20040;-60
2020/12/20 02:47:36;;;;;;;2.38;1.95;;;18.90;51.60;;;;;;5064952;28;20028;-60
2020/12/20 02:50:02;;;;;;;4.22;2.33;;;18.90;51.60;;;;;;5065963;28;20029;-61
2020/12/20 02:52:27;;;;;;;2.42;1.98;;;18.90;51.60;;;;;;5047150;28;20548;-60
2020/12/20 02:54:53;;;;;;;2.72;2.40;;;18.90;51.60;;;;;;5065206;28;20320;-60
2020/12/20 02:57:18;;;;;;;2.72;2.42;;;18.90;51.60;;;;;;5065372;28;20028;-58
2020/12/20 02:59:44;;;;;;;2.95;1.80;;;18.90;51.60;;;;;;5065156;28;20024;-60
2020/12/20 03:02:09;;;;;;;3.67;2.28;;;18.90;51.60;;;;;;5064185;28;20516;-61
2020/12/20 03:04:35;;;;;;;4.30;2.10;;;18.80;51.60;;;;;;5065078;28;20041;-60
2020/12/20 03:07:00;;;;;;;2.38;2.13;;;18.80;51.50;;;;;;5065734;28;20021;-61
2020/12/20 03:09:26;;;;;;;2.30;2.10;;;18.80;51.50;;;;;;5065416;28;20372;-61
2020/12/20 03:11:51;;;;;;;2.38;1.98;;;18.80;51.60;;;;;;5064879;28;20126;-61
2020/12/20 03:14:17;;;;;;;2.90;2.10;;;18.80;51.60;;;;;;5065041;28;20013;-60
2020/12/20 03:16:42;;;;;;;2.25;2.05;;;18.80;51.60;;;;;;5064526;28;20090;-60
2020/12/20 03:19:08;;;;;;;2.95;2.30;;;18.80;51.60;;;;;;5065561;28;20036;-62
2020/12/20 03:21:33;;;;;;;2.28;2.00;;;18.80;51.60;;;;;;5064808;28;20020;-60
2020/12/20 03:24:00;;;;;;;1.90;1.73;;;18.80;51.60;;;;;;5064574;28;20118;-59
2020/12/20 03:26:27;;;;;;;2.25;1.90;;;18.70;51.60;;;;;;5047151;28;20032;-60
2020/12/20 03:28:52;;;;;;;2.40;2.17;;;18.80;51.60;;;;;;5064453;28;20074;-61
2020/12/20 03:31:18;;;;;;;1.95;1.75;;;18.80;51.60;;;;;;5064516;28;20526;-58
2020/12/20 03:33:43;;;;;;;2.67;1.73;;;18.80;51.60;;;;;;5068058;28;20028;-60
2020/12/20 03:36:09;;;;;;;2.50;2.00;;;18.80;51.60;;;;;;5068538;28;20071;-61
2020/12/20 03:38:34;;;;;;;1.98;1.77;;;18.80;51.60;;;;;;5068552;28;20032;-57
2020/12/20 03:41:00;;;;;;;2.35;1.90;;;18.80;51.60;;;;;;5049943;28;20036;-59
2020/12/20 03:43:25;;;;;;;2.10;1.67;;;18.80;51.50;;;;;;5068210;28;20040;-59
2020/12/20 03:45:51;;;;;;;2.40;2.00;;;18.90;51.60;;;;;;5067074;28;20043;-60
2020/12/20 03:48:16;;;;;;;2.08;1.88;;;18.90;51.60;;;;;;5067715;28;20107;-59
2020/12/20 03:50:42;;;;;;;1.67;1.58;;;18.90;51.50;;;;;;5067812;28;20028;-60
2020/12/20 03:53:07;;;;;;;2.42;2.05;;;18.90;51.50;;;;;;5050219;28;20550;-60
2020/12/20 03:55:32;;;;;;;2.20;1.90;;;18.90;51.50;;;;;;5068096;28;20229;-60
2020/12/20 03:57:58;;;;;;;2.05;1.73;;;18.90;51.50;;;;;;5067844;28;20029;-59
2020/12/20 04:00:24;;;;;;;1.95;1.70;;;19.00;51.60;;;;;;5049309;28;20625;-59
2020/12/20 04:02:49;;;;;;;3.15;2.03;;;19.00;51.60;;;;;;5066993;28;20085;-59
2020/12/20 04:05:15;;;;;;;3.05;1.60;;;19.00;51.60;;;;;;5067603;28;20024;-60
2020/12/20 04:07:42;;;;;;;2.03;1.83;;;19.00;51.50;;;;;;5067862;28;20081;-61
2020/12/20 04:10:08;;;;;;;2.17;1.60;;;19.00;51.50;;;;;;5049709;28;20021;-60
2020/12/20 04:12:33;;;;;;;2.05;1.83;;;19.00;51.50;;;;;;5067618;28;20032;-60
2020/12/20 04:14:59;;;;;;;2.15;1.60;;;19.00;51.50;;;;;;5067505;28;20081;-60
2020/12/20 04:17:24;;;;;;;2.47;1.70;;;19.00;51.60;;;;;;5067299;28;20383;-60
2020/12/20 04:19:50;;;;;;;1.70;1.60;;;19.00;51.60;;;;;;5066857;28;20036;-61
2020/12/20 04:22:15;;;;;;;2.08;1.90;;;19.00;51.60;;;;;;5067748;28;20146;-60
2020/12/20 04:24:41;;;;;;;2.40;1.88;;;19.00;51.60;;;;;;5067520;28;20491;-60
2020/12/20 04:27:06;;;;;;;1.73;1.48;;;19.00;51.60;;;;;;5067999;28;20027;-60
2020/12/20 04:29:32;;;;;;;1.85;1.75;;;19.00;51.60;;;;;;5067000;28;20059;-61
2020/12/20 04:32:00;;;;;;;1.75;1.65;;;19.00;51.60;;;;;;5067125;28;20025;-59
2020/12/20 04:34:25;;;;;;;1.98;1.75;;;19.00;51.60;;;;;;5067161;28;20043;-60
2020/12/20 04:36:51;;;;;;;2.03;1.83;;;19.00;51.50;;;;;;5049237;28;20028;-60
2020/12/20 04:39:16;;;;;;;2.00;1.80;;;19.00;51.50;;;;;;5067610;28;20024;-60
2020/12/20 04:41:42;;;;;;;1.90;1.70;;;19.00;51.50;;;;;;5066392;28;20507;-60
2020/12/20 04:44:07;;;;;;;1.73;1.63;;;18.90;51.60;;;;;;5065406;28;20029;-60
2020/12/20 04:46:33;;;;;;;1.88;1.75;;;18.90;51.50;;;;;;5066731;28;20055;-60
2020/12/20 04:48:58;;;;;;;1.70;1.42;;;19.00;51.50;;;;;;5024506;28;20025;-60
2020/12/20 04:51:24;;;;;;;2.03;1.85;;;18.90;51.50;;;;;;5031816;28;20985;-60
2020/12/20 04:53:49;;;;;;;2.63;1.70;;;18.90;51.50;;;;;;5066859;28;20035;-60
2020/12/20 04:56:15;;;;;;;2.15;1.77;;;18.90;51.50;;;;;;5016020;28;20120;-58
2020/12/20 04:58:40;;;;;;;1.70;1.60;;;18.90;51.50;;;;;;5032331;28;20111;-62
2020/12/20 05:01:07;;;;;;;2.83;2.13;;;18.90;51.50;;;;;;5048499;28;20554;-57
2020/12/20 05:03:32;;;;;;;1.75;1.65;;;18.90;51.40;;;;;;5066519;28;20024;-58
2020/12/20 05:05:58;;;;;;;2.10;1.90;;;18.90;51.40;;;;;;5067024;28;20104;-58
2020/12/20 05:08:24;;;;;;;2.45;1.55;;;18.90;51.40;;;;;;5048887;28;20033;-60
2020/12/20 05:10:50;;;;;;;2.33;1.55;;;18.90;51.50;;;;;;5065798;28;20090;-58
2020/12/20 05:13:16;;;;;;;3.63;1.55;;;18.90;51.50;;;;;;5066104;28;20017;-60
2020/12/20 05:15:42;;;;;;;1.60;1.38;;;18.90;51.50;;;;;;5066236;28;20039;-59
2020/12/20 05:18:09;;;;;;;2.60;1.48;;;18.90;51.50;;;;;;5066408;28;20021;-59
2020/12/20 05:20:39;;;;;;;1.95;1.60;;;18.90;51.50;;;;;;5066285;28;20094;-59
2020/12/20 05:23:05;;;;;;;1.60;1.35;;;18.90;51.50;;;;;;5065544;28;20055;-60
2020/12/20 05:25:34;;;;;;;3.50;2.08;;;18.90;51.40;;;;;;5066545;28;20470;-60
2020/12/20 05:28:07;;;;;;;1.85;1.50;;;18.90;51.40;;;;;;5066198;28;20432;-59
2020/12/20 05:30:33;;;;;;;1.42;1.33;;;18.90;51.40;;;;;;5066033;28;20059;-59
2020/12/20 05:32:58;;;;;;;1.60;1.50;;;18.90;51.30;;;;;;5066099;28;20052;-58
2020/12/20 05:35:24;;;;;;;1.73;1.60;;;18.90;51.20;;;;;;5047874;28;20033;-58
2020/12/20 05:37:49;;;;;;;1.90;1.73;;;18.90;51.30;;;;;;5066408;28;20146;-58
2020/12/20 05:40:32;;;;;;;2.85;1.70;;;18.90;51.30;;;;;;5066821;28;20024;-62
2020/12/20 05:43:05;;;;;;;3.03;1.88;;;19.00;51.30;;;;;;5069143;28;20032;-62
2020/12/20 05:45:35;;;;;;;2.42;1.42;;;19.00;51.20;;;;;;5049530;28;20055;-62
2020/12/20 05:48:21;;;;;;;1.70;1.50;;;19.00;51.30;;;;;;5057814;28;20028;-60
2020/12/20 05:50:51;;;;;;;1.45;1.33;;;19.00;51.20;;;;;;5065345;28;20025;-61
2020/12/20 05:53:22;;;;;;;1.70;1.48;;;19.00;51.20;;;;;;5048271;28;20538;-61
2020/12/20 05:55:47;;;;;;;1.90;1.48;;;18.90;51.10;;;;;;5065501;28;20394;-61
2020/12/20 05:58:13;;;;;;;1.90;1.55;;;19.00;51.20;;;;;;5065812;28;20037;-62
2020/12/20 06:00:40;;;;;;;1.50;1.40;;;18.90;51.20;;;;;;5065451;28;20035;-61
2020/12/20 06:03:05;;;;;;;1.40;1.23;;;19.00;51.30;;;;;;5065669;28;20024;-61
2020/12/20 06:05:41;;;;;;;1.52;1.42;;;18.90;51.30;;;;;;5065479;28;20094;-62
2020/12/20 06:08:09;;;;;;;1.48;1.38;;;18.90;51.90;;;;;;5066122;28;20341;-60
2020/12/20 06:10:37;;;;;;;2.75;1.38;;;18.90;51.30;;;;;;5066042;28;20085;-60
2020/12/20 06:13:03;;;;;;;1.58;1.40;;;18.90;51.30;;;;;;5065371;28;20028;-61
2020/12/20 06:15:30;;;;;;;3.42;1.77;;;18.90;51.30;;;;;;5065549;28;20064;-61
2020/12/20 06:17:56;;;;;;;2.03;1.42;;;18.90;51.30;;;;;;5065080;28;20384;-60
2020/12/20 06:20:28;;;;;;;1.58;1.45;;;18.90;51.30;;;;;;5030910;28;20085;-61
2020/12/20 06:22:53;;;;;;;1.98;1.60;;;18.90;51.30;;;;;;5064942;28;20034;-61
2020/12/20 06:25:23;;;;;;;1.65;1.30;;;18.90;51.30;;;;;;5065078;28;20036;-61
2020/12/20 06:27:48;;;;;;;1.60;1.30;;;18.90;51.30;;;;;;5065503;28;20020;-62
2020/12/20 06:30:14;;;;;;;1.45;1.33;;;18.90;51.10;;;;;;5047603;28;20024;-60
2020/12/20 06:32:49;;;;;;;1.20;1.10;;;18.90;51.10;;;;;;5064609;28;20025;-57
2020/12/20 06:35:18;;;;;;;1.60;1.38;;;18.90;51.10;;;;;;5048907;28;20012;-61
2020/12/20 06:37:44;;;;;;;1.83;1.40;;;18.90;51.00;;;;;;5040395;28;20082;-59
2020/12/20 06:40:11;;;;;;;1.20;1.10;;;18.90;50.90;;;;;;5047074;28;20077;-61
2020/12/20 06:42:43;;;;;;;1.70;1.50;;;19.00;51.10;;;;;;5046777;28;20538;-59
2020/12/20 06:45:19;;;;;;;1.48;1.35;;;19.00;51.10;;;;;;5065484;28;20029;-58
2020/12/20 06:47:51;;;;;;;2.05;1.65;;;19.00;51.10;;;;;;5047512;28;20070;-58
2020/12/20 06:50:35;;;;;;;1.70;1.60;;;19.00;51.10;;;;;;5065517;28;20483;-60
2020/12/20 06:53:01;;;;;;;4.13;1.65;;;19.00;51.00;;;;;;5070616;28;20021;-60
2020/12/20 06:55:26;;;;;;;1.85;1.38;;;19.00;51.00;;;;;;5047892;28;20063;-59
2020/12/20 06:58:04;;;;;;;2.90;1.40;;;19.00;51.00;;;;;;5065506;28;20052;-59
2020/12/20 07:00:45;;;;;;;1.60;1.50;;;19.00;50.90;;;;;;5065205;28;20024;-58
2020/12/20 07:03:23;;;;;;;1.10;1.00;;;19.00;50.90;;;;;;5065208;28;20043;-59
2020/12/20 07:05:49;;;;;;;1.83;1.30;;;19.00;50.90;;;;;;5065303;28;20479;-60
2020/12/20 07:08:22;;;;;;;1.30;1.20;;;19.00;50.90;;;;;;5068472;28;20588;-59
2020/12/20 07:10:51;;;;;;;2.67;1.38;;;19.00;50.90;;;;;;5068837;28;20030;-60
2020/12/20 07:13:33;;;;;;;1.20;1.02;;;19.00;51.00;;;;;;5068760;28;20017;-61
2020/12/20 07:16:18;;;;;;;1.83;1.40;;;19.00;51.00;;;;;;5068670;28;20035;-60
2020/12/20 07:18:53;;;;;;;1.40;1.30;;;19.00;51.10;;;;;;5068387;28;20028;-59
2020/12/20 07:21:19;;;;;;;1.63;1.35;;;19.00;51.10;;;;;;5068581;28;20059;-60
2020/12/20 07:24:11;;;;;;;1.38;1.20;;;19.00;51.10;;;;;;5068213;28;20530;-59
2020/12/20 07:26:37;;;;;;;3.10;1.27;;;19.00;51.10;;;;;;5068055;28;20047;-60
2020/12/20 07:29:03;;;;;;;1.20;1.08;;;18.90;51.00;;;;;;5068170;28;20196;-60
2020/12/20 07:31:29;;;;;;;1.77;1.20;;;18.90;51.10;;;;;;5067558;28;20123;-61
2020/12/20 07:33:55;;;;;;;1.70;1.38;;;18.90;51.10;;;;;;5068860;28;20127;-60
2020/12/20 07:36:20;;;;;;;1.55;1.45;;;18.90;51.10;;;;;;5068671;28;20510;-59
2020/12/20 07:38:46;;;;;;;1.45;1.30;;;18.90;51.10;;;;;;5067901;28;20044;-58
2020/12/20 07:41:12;;;;;;;1.25;1.15;;;18.90;51.10;;;;;;5067721;28;20514;-60
2020/12/20 07:43:38;;;;;;;1.58;1.42;;;18.90;51.10;;;;;;5068154;28;20532;-59
2020/12/20 07:46:06;;;;;;;1.23;1.13;;;18.90;51.10;;;;;;5068137;28;20343;-60
2020/12/20 07:48:31;;;;;;;1.70;1.50;;;18.90;51.00;;;;;;5068233;28;20027;-61
2020/12/20 07:51:10;;;;;;;2.00;1.58;;;18.90;50.90;;;;;;5050282;28;20029;-61
2020/12/20 07:53:36;;;;;;;1.55;1.33;;;18.90;50.90;;;;;;5049529;28;20017;-59
2020/12/20 07:56:02;;;;;;;1.83;1.35;;;18.90;50.70;;;;;;5067703;28;20495;-61
2020/12/20 07:58:31;;;;;;;2.03;1.58;;;18.90;50.80;;;;;;5068322;28;20035;-61
2020/12/20 08:01:04;;;;;;;1.88;1.33;;;18.90;50.80;;;;;;5050326;28;20575;-60
2020/12/20 08:03:29;;;;;;;1.60;1.50;;;19.00;50.90;;;;;;5068198;28;20499;-62
2020/12/20 08:06:11;;;;;;;1.45;1.20;;;19.00;50.90;;;;;;5069089;28;20079;-60
2020/12/20 08:08:39;;;;;;;1.50;1.40;;;19.00;51.50;;;;;;5067986;28;20398;-59
2020/12/20 08:11:26;;;;;;;1.27;1.08;;;19.10;50.90;;;;;;5067311;28;20029;-61
2020/12/20 08:13:56;;;;;;;2.33;1.40;;;19.10;50.80;;;;;;5067698;28;20026;-61
2020/12/20 08:16:26;;;;;;;1.98;1.35;;;19.10;50.80;;;;;;5067591;28;20063;-59
2020/12/20 08:18:53;;;;;;;1.63;1.52;;;19.10;50.80;;;;;;5068201;28;20056;-54
2020/12/20 08:21:20;;;;;;;1.65;1.40;;;19.00;50.70;;;;;;5032550;28;20017;-57
2020/12/20 08:23:45;;;;;;;1.52;1.42;;;19.10;50.80;;;;;;5033158;28;20068;-58
2020/12/20 08:26:11;;;;;;;2.58;1.80;;;19.00;50.70;;;;;;5049180;28;20032;-56
2020/12/20 08:28:36;;;;;;;1.67;1.58;;;19.00;50.60;;;;;;5049494;28;20383;-56
2020/12/20 08:31:14;;;;;;;2.17;1.98;;;19.10;50.70;;;;;;5065051;28;20032;-60
2020/12/20 08:33:39;;;;;;;1.80;1.60;;;19.10;50.80;;;;;;5057110;28;20047;-54
2020/12/20 08:36:04;;;;;;;2.75;1.73;;;19.10;50.70;;;;;;5069209;28;20025;-55
2020/12/20 08:38:30;;;;;;;1.73;1.50;;;19.10;50.70;;;;;;5033083;28;20032;-60
2020/12/20 08:40:55;;;;;;;2.17;1.63;;;19.10;50.80;;;;;;5065434;28;20040;-58
2020/12/20 08:43:22;;;;;;;2.03;1.60;;;19.10;50.80;;;;;;5064740;28;20353;-58
2020/12/20 08:45:47;;;;;;;1.65;1.27;;;19.00;50.80;;;;;;5030562;28;20028;-57
2020/12/20 08:48:16;;;;;;;2.20;1.83;;;19.00;51.20;;;;;;5065505;28;20086;-57
2020/12/20 08:50:42;;;;;;;1.70;1.60;;;19.00;50.80;;;;;;5064441;28;20028;-54
2020/12/20 08:53:09;;;;;;;2.60;1.92;;;19.00;50.90;;;;;;5065099;28;20079;-56
2020/12/20 08:55:35;;;;;;;2.15;1.95;;;19.00;50.90;;;;;;5064978;28;20645;-59
2020/12/20 08:58:01;;;;;;;3.08;1.90;;;19.00;50.90;;;;;;5065261;28;20071;-53
2020/12/20 09:00:26;;;;;;;3.40;2.10;;;19.00;50.90;;;;;;5065340;28;20494;-56
2020/12/20 09:03:02;;;;;;;2.45;2.25;;;18.90;50.80;;;;;;5064224;28;20070;-55
2020/12/20 09:05:28;;;;;;;2.15;2.05;;;19.00;50.90;;;;;;5064965;28;20047;-57
2020/12/20 09:07:54;;;;;;;3.00;2.30;;;18.90;50.80;;;;;;5064484;28;20041;-60
2020/12/20 09:10:30;;;;;;;4.65;2.42;;;18.90;50.80;;;;;;5064718;28;20032;-54
2020/12/20 09:12:57;;;;;;;2.05;1.83;;;18.90;51.10;;;;;;5064336;28;20048;-57
2020/12/20 09:15:23;;;;;;;2.75;2.50;;;18.90;50.80;;;;;;5064749;28;20544;-59
2020/12/20 09:17:50;;;;;;;2.70;2.50;;;18.90;50.80;;;;;;5065662;28;20033;-53
2020/12/20 09:20:17;;;;;;;3.55;2.72;;;18.90;50.90;;;;;;5064980;28;20028;-57
2020/12/20 09:22:58;;;;;;;3.97;2.65;;;18.90;50.80;;;;;;5065022;28;20029;-58
2020/12/20 09:25:40;;;;;;;3.17;2.60;;;18.90;50.80;;;;;;5064005;28;20063;-56
2020/12/20 09:28:07;;;;;;;3.00;2.70;;;18.90;50.90;;;;;;5065288;28;20036;-62
2020/12/20 09:30:48;;;;;;;3.05;2.75;;;18.90;50.80;;;;;;5064802;28;20122;-60
2020/12/20 09:33:32;;;;;;;4.50;3.88;;;18.80;50.80;;;;;;5063020;28;20082;-59
2020/12/20 09:36:03;;;;;;;7.85;5.68;;;18.80;50.80;;;;;;5045947;28;20548;-60
2020/12/20 09:38:40;;;;;;;14.48;8.50;;;18.80;50.80;;;;;;5046207;28;20170;-59
2020/12/20 09:41:07;;;;;;;20.48;12.48;;;18.80;50.80;;;;;;5045489;28;20040;-64
2020/12/20 09:43:32;;;;;;;23.45;14.52;;;18.80;50.80;;;;;;5046271;28;20089;-61
2020/12/20 09:45:58;;;;;;;24.42;16.27;;;18.80;50.90;;;;;;5063462;28;20040;-57
2020/12/20 09:48:24;;;;;;;22.52;15.48;;;18.80;50.90;;;;;;5063684;28;20082;-56
2020/12/20 09:50:50;;;;;;;26.27;17.02;;;18.70;50.90;;;;;;5063517;28;20093;-56
2020/12/20 09:53:15;;;;;;;26.48;14.35;;;18.70;50.90;;;;;;5045526;28;20518;-62
2020/12/20 09:55:41;;;;;;;33.47;18.70;;;18.70;51.30;;;;;;5063863;28;20039;-61
2020/12/20 09:58:11;;;;;;;32.88;19.55;;;18.70;51.10;;;;;;5064134;28;20519;-57
2020/12/20 10:00:36;;;;;;;40.60;22.27;;;18.80;51.30;;;;;;5063809;28;20556;-61
2020/12/20 10:03:02;;;;;;;46.83;22.58;;;18.80;51.20;;;;;;5063794;28;20132;-61
2020/12/20 10:05:27;;;;;;;44.92;21.05;;;18.80;51.50;;;;;;5063241;28;20423;-59
2020/12/20 10:07:53;;;;;;;46.83;21.58;;;18.80;51.40;;;;;;5063767;28;20040;-63
2020/12/20 10:10:18;;;;;;;41.90;20.90;;;18.90;51.40;;;;;;5063757;28;20048;-63
2020/12/20 10:12:44;;;;;;;48.72;22.58;;;18.90;51.50;;;;;;5063504;28;20039;-64
2020/12/20 10:15:09;;;;;;;45.53;22.40;;;19.00;51.50;;;;;;5063655;28;20122;-63
2020/12/20 10:17:35;;;;;;;39.22;20.20;;;19.00;51.50;;;;;;5064220;28;20032;-64
2020/12/20 10:20:00;;;;;;;59.95;23.95;;;19.00;51.50;;;;;;5063446;28;20495;-63
2020/12/20 10:22:26;;;;;;;59.72;22.90;;;19.00;51.70;;;;;;5063255;28;20040;-61
2020/12/20 10:24:52;;;;;;;42.67;21.75;;;19.00;51.70;;;;;;5063460;28;20040;-65
2020/12/20 10:27:20;;;;;;;48.55;22.83;;;19.00;51.60;;;;;;5063685;28;20040;-63
2020/12/20 10:29:46;;;;;;;37.58;19.73;;;19.00;51.50;;;;;;5045847;28;20033;-63
2020/12/20 10:32:12;;;;;;;39.30;20.95;;;19.10;51.40;;;;;;5063952;28;20094;-63
2020/12/20 10:34:37;;;;;;;37.78;19.50;;;19.10;51.50;;;;;;5064900;28;20037;-61
2020/12/20 10:37:03;;;;;;;35.92;18.98;;;19.20;51.70;;;;;;5063444;28;21360;-61
2020/12/20 10:39:29;;;;;;;42.63;19.98;;;19.20;51.50;;;;;;5052180;28;20062;-62
2020/12/20 10:41:54;;;;;;;40.42;20.65;;;19.30;51.50;;;;;;5061565;28;20036;-65
2020/12/20 10:44:23;;;;;;;37.17;18.60;;;19.30;51.50;;;;;;5064390;28;20104;-65
2020/12/20 10:46:50;;;;;;;34.35;18.83;;;19.40;51.50;;;;;;5045693;28;20025;-64
2020/12/20 10:49:15;;;;;;;37.85;19.17;;;19.40;51.60;;;;;;5063659;28;20064;-64
2020/12/20 10:51:41;;;;;;;37.35;18.38;;;19.50;51.80;;;;;;5063324;28;20063;-63
2020/12/20 10:54:06;;;;;;;36.83;18.58;;;19.50;51.70;;;;;;5062770;28;20961;-64
2020/12/20 10:56:32;;;;;;;30.05;17.55;;;19.50;51.60;;;;;;5063291;28;20032;-64
2020/12/20 10:58:57;;;;;;;32.03;17.50;;;19.50;51.50;;;;;;5063254;28;20036;-64
2020/12/20 11:01:23;;;;;;;33.72;16.52;;;19.60;51.60;;;;;;5062727;28;20411;-63
2020/12/20 11:03:48;;;;;;;32.88;16.52;;;19.50;51.30;;;;;;5063263;28;20036;-64
2020/12/20 11:06:21;;;;;;;24.38;14.32;;;19.60;52.40;;;;;;5044927;28;20044;-64
2020/12/20 11:08:47;;;;;;;25.13;14.13;;;19.60;51.40;;;;;;5056408;28;20627;-64
2020/12/20 11:11:13;;;;;;;26.05;13.15;;;19.60;51.40;;;;;;5063314;28;20119;-64
2020/12/20 11:13:41;;;;;;;26.35;13.00;;;19.60;51.30;;;;;;5063670;28;20036;-65
2020/12/20 11:16:18;;;;;;;23.45;12.90;;;19.60;51.30;;;;;;5057764;28;20043;-65
2020/12/20 11:18:44;;;;;;;102.80;19.02;;;19.60;51.20;;;;;;5045546;28;20488;-64
2020/12/20 11:21:13;;;;;;;60.75;16.52;;;19.70;51.40;;;;;;5064148;28;20040;-63
2020/12/20 11:23:38;;;;;;;40.78;12.93;;;19.70;51.20;;;;;;5063624;28;20044;-64
2020/12/20 11:26:20;;;;;;;32.33;11.70;;;19.70;51.40;;;;;;5064061;28;20059;-64
2020/12/20 11:28:48;;;;;;;26.33;12.20;;;19.70;51.20;;;;;;5062815;28;20231;-64
2020/12/20 11:31:16;;;;;;;37.70;12.05;;;19.70;51.10;;;;;;5063468;28;20079;-63
2020/12/20 11:33:41;;;;;;;30.25;10.50;;;19.70;51.40;;;;;;5046781;28;20556;-63
2020/12/20 11:36:07;;;;;;;25.80;11.73;;;19.80;51.20;;;;;;5063870;28;20071;-62
2020/12/20 11:38:33;;;;;;;28.17;11.57;;;19.80;51.10;;;;;;5063485;28;20033;-63
2020/12/20 11:40:59;;;;;;;31.38;11.77;;;19.80;51.10;;;;;;5045800;28;20487;-63
2020/12/20 11:43:25;;;;;;;19.42;10.52;;;19.80;51.00;;;;;;5064523;28;20040;-62
2020/12/20 11:45:50;;;;;;;26.42;10.68;;;19.80;51.10;;;;;;5064722;28;20036;-61
2020/12/20 11:48:16;;;;;;;24.10;11.20;;;19.80;51.10;;;;;;5064228;28;20033;-62
2020/12/20 11:50:41;;;;;;;20.13;10.25;;;19.80;51.10;;;;;;5046661;28;20174;-63
2020/12/20 11:53:07;;;;;;;20.67;9.55;;;19.80;51.00;;;;;;5049386;28;20040;-64
2020/12/20 11:55:32;;;;;;;16.58;9.98;;;19.80;50.90;;;;;;5068053;28;20116;-62
2020/12/20 11:57:58;;;;;;;20.90;9.82;;;19.90;51.10;;;;;;5067398;28;20048;-62
2020/12/20 12:00:25;;;;;;;20.42;9.82;;;19.90;51.00;;;;;;5048751;28;20043;-62
2020/12/20 12:02:51;;;;;;;18.13;10.02;;;19.90;51.00;;;;;;5066158;28;20036;-62
2020/12/20 12:05:17;;;;;;;19.90;10.18;;;19.90;50.80;;;;;;5066303;28;20080;-62
2020/12/20 12:07:42;;;;;;;15.52;9.18;;;19.90;50.70;;;;;;5066641;28;20503;-61
2020/12/20 12:10:08;;;;;;;15.60;9.10;;;19.90;50.50;;;;;;5066053;28;20032;-62
2020/12/20 12:12:33;;;;;;;16.80;9.15;;;20.00;50.30;;;;;;5048214;28;20048;-62
2020/12/20 12:14:59;;;;;;;19.55;9.00;;;20.00;50.10;;;;;;5066642;28;20514;-62
2020/12/20 12:17:24;;;;;;;18.98;8.95;;;20.00;49.90;;;;;;5066073;28;20037;-62
2020/12/20 12:19:52;;;;;;;18.02;8.50;;;20.00;49.60;;;;;;5048096;28;20116;-63
2020/12/20 12:22:17;;;;;;;15.18;8.43;;;20.00;49.60;;;;;;5065481;28;20041;-61
2020/12/20 12:24:43;;;;;;;13.73;8.23;;;20.10;49.40;;;;;;5066197;28;20043;-61
2020/12/20 12:27:08;;;;;;;15.63;7.53;;;20.10;49.20;;;;;;5065830;28;20029;-62
2020/12/20 12:29:33;;;;;;;12.43;7.25;;;20.20;49.30;;;;;;5065655;28;20032;-61
2020/12/20 12:32:00;;;;;;;16.77;8.13;;;20.20;49.40;;;;;;5047295;28;20032;-59
2020/12/20 12:34:25;;;;;;;16.92;7.93;;;20.20;49.30;;;;;;5058097;28;20040;-59
2020/12/20 12:36:51;;;;;;;13.13;6.85;;;20.10;49.20;;;;;;5065206;28;20047;-61
2020/12/20 12:39:16;;;;;;;10.77;7.20;;;20.10;49.20;;;;;;5047608;28;20032;-59
2020/12/20 12:41:42;;;;;;;12.02;7.65;;;20.10;49.20;;;;;;5065328;28;20029;-63
2020/12/20 12:44:07;;;;;;;12.07;7.00;;;20.10;49.20;;;;;;5066180;28;20024;-63
2020/12/20 12:46:33;;;;;;;14.25;8.95;;;20.10;49.60;;;;;;5065872;28;20036;-63